sensor_id;sensor_type;location;lat;lon;timestamp;temperature;humidity
55492;DHT22;41354;52.990;6.878;2022-08-03T00:01:29;18.80;99.90
55492;DHT22;41354;52.990;6.878;2022-08-03T00:03:55;18.80;99.90
55492;DHT22;41354;52.990;6.878;2022-08-03T00:06:21;18.70;99.90
55492;DHT22;41354;52.990;6.878;2022-08-03T00:08:46;18.70;99.90
55492;DHT22;41354;52.990;6.878;2022-08-03T00:11:12;18.60;99.90
55492;DHT22;41354;52.990;6.878;2022-08-03T00:13:37;18.70;99.90
55492;DHT22;41354;52.990;6.878;2022-08-03T00:16:03;18.60;99.90
55492;DHT22;41354;52.990;6.878;2022-08-03T00:18:29;18.60;99.90
55492;DHT22;41354;52.990;6.878;2022-08-03T00:20:54;18.60;99.90
55492;DHT22;41354;52.990;6.878;2022-08-03T00:23:20;18.60;99.90
55492;DHT22;41354;52.990;6.878;2022-08-03T00:25:46;18.60;99.90
55492;DHT22;41354;52.990;6.878;2022-08-03T00:28:11;18.60;99.90
55492;DHT22;41354;52.990;6.878;2022-08-03T00:30:42;18.50;99.90
55492;DHT22;41354;52.990;6.878;2022-08-03T00:33:08;18.50;99.90
55492;DHT22;41354;52.990;6.878;2022-08-03T00:35:35;18.50;99.90
55492;DHT22;41354;52.990;6.878;2022-08-03T00:38:01;18.50;99.90
55492;DHT22;41354;52.990;6.878;2022-08-03T00:40:27;18.50;99.90
55492;DHT22;41354;52.990;6.878;2022-08-03T00:42:54;18.50;99.90
55492;DHT22;41354;52.990;6.878;2022-08-03T00:45:22;18.40;99.90
55492;DHT22;41354;52.990;6.878;2022-08-03T00:47:48;18.40;99.90
55492;DHT22;41354;52.990;6.878;2022-08-03T00:50:16;18.40;99.90
55492;DHT22;41354;52.990;6.878;2022-08-03T00:52:42;18.40;99.90
55492;DHT22;41354;52.990;6.878;2022-08-03T00:55:09;18.40;99.90
55492;DHT22;41354;52.990;6.878;2022-08-03T00:57:35;18.40;99.90
55492;DHT22;41354;52.990;6.878;2022-08-03T01:00:01;18.40;99.90
55492;DHT22;41354;52.990;6.878;2022-08-03T01:02:27;18.30;99.90
55492;DHT22;41354;52.990;6.878;2022-08-03T01:04:54;18.30;99.90
55492;DHT22;41354;52.990;6.878;2022-08-03T01:12:42;18.30;99.90
55492;DHT22;41354;52.990;6.878;2022-08-03T01:15:24;18.20;99.90
55492;DHT22;41354;52.990;6.878;2022-08-03T01:17:58;18.20;99.90
55492;DHT22;41354;52.990;6.878;2022-08-03T01:20:32;18.20;99.90
55492;DHT22;41354;52.990;6.878;2022-08-03T01:31:25;18.10;99.90
55492;DHT22;41354;52.990;6.878;2022-08-03T01:33:57;18.10;99.90
55492;DHT22;41354;52.990;6.878;2022-08-03T01:36:27;18.10;99.90
55492;DHT22;41354;52.990;6.878;2022-08-03T01:38:57;18.10;99.90
55492;DHT22;41354;52.990;6.878;2022-08-03T01:41:33;18.10;99.90
55492;DHT22;41354;52.990;6.878;2022-08-03T01:44:01;18.10;99.90
55492;DHT22;41354;52.990;6.878;2022-08-03T01:46:29;18.00;99.90
55492;DHT22;41354;52.990;6.878;2022-08-03T01:48:56;17.90;99.90
55492;DHT22;41354;52.990;6.878;2022-08-03T01:51:23;17.90;99.90
55492;DHT22;41354;52.990;6.878;2022-08-03T01:53:50;17.80;99.90
55492;DHT22;41354;52.990;6.878;2022-08-03T01:56:19;17.80;99.90
55492;DHT22;41354;52.990;6.878;2022-08-03T01:58:47;17.70;99.90
55492;DHT22;41354;52.990;6.878;2022-08-03T02:01:14;17.70;99.90
55492;DHT22;41354;52.990;6.878;2022-08-03T02:03:42;17.70;99.90
55492;DHT22;41354;52.990;6.878;2022-08-03T02:06:10;17.70;99.90
55492;DHT22;41354;52.990;6.878;2022-08-03T02:08:37;17.70;99.90
55492;DHT22;41354;52.990;6.878;2022-08-03T02:11:04;17.70;99.90
55492;DHT22;41354;52.990;6.878;2022-08-03T02:13:32;17.60;99.90
55492;DHT22;41354;52.990;6.878;2022-08-03T02:16:00;17.60;99.90
55492;DHT22;41354;52.990;6.878;2022-08-03T02:18:27;17.60;99.90
55492;DHT22;41354;52.990;6.878;2022-08-03T02:20:55;17.60;99.90
55492;DHT22;41354;52.990;6.878;2022-08-03T02:23:21;17.60;99.90
55492;DHT22;41354;52.990;6.878;2022-08-03T02:25:52;17.60;99.90
55492;DHT22;41354;52.990;6.878;2022-08-03T02:28:27;17.60;99.90
55492;DHT22;41354;52.990;6.878;2022-08-03T02:30:54;17.50;99.90
55492;DHT22;41354;52.990;6.878;2022-08-03T02:33:27;17.50;99.90
55492;DHT22;41354;52.990;6.878;2022-08-03T02:35:56;17.60;99.90
55492;DHT22;41354;52.990;6.878;2022-08-03T02:38:27;17.60;99.90
55492;DHT22;41354;52.990;6.878;2022-08-03T02:40:54;17.50;99.90
55492;DHT22;41354;52.990;6.878;2022-08-03T02:43:22;17.50;99.90
55492;DHT22;41354;52.990;6.878;2022-08-03T02:45:50;17.50;99.90
55492;DHT22;41354;52.990;6.878;2022-08-03T02:48:20;17.50;99.90
55492;DHT22;41354;52.990;6.878;2022-08-03T02:50:50;17.50;99.90
55492;DHT22;41354;52.990;6.878;2022-08-03T02:53:16;17.40;99.90
55492;DHT22;41354;52.990;6.878;2022-08-03T02:55:43;17.40;99.90
55492;DHT22;41354;52.990;6.878;2022-08-03T02:58:12;17.40;99.90
55492;DHT22;41354;52.990;6.878;2022-08-03T03:00:39;17.40;99.90
55492;DHT22;41354;52.990;6.878;2022-08-03T03:03:05;17.40;99.90
55492;DHT22;41354;52.990;6.878;2022-08-03T03:05:33;17.40;99.90
55492;DHT22;41354;52.990;6.878;2022-08-03T03:07:59;17.50;99.90
55492;DHT22;41354;52.990;6.878;2022-08-03T03:10:25;17.40;99.90
55492;DHT22;41354;52.990;6.878;2022-08-03T03:12:55;17.40;99.90
55492;DHT22;41354;52.990;6.878;2022-08-03T03:15:22;17.40;99.90
55492;DHT22;41354;52.990;6.878;2022-08-03T03:17:49;17.40;99.90
55492;DHT22;41354;52.990;6.878;2022-08-03T03:20:16;17.40;99.90
55492;DHT22;41354;52.990;6.878;2022-08-03T03:22:42;17.30;99.90
55492;DHT22;41354;52.990;6.878;2022-08-03T03:25:09;17.30;99.90
55492;DHT22;41354;52.990;6.878;2022-08-03T03:27:35;17.30;99.90
55492;DHT22;41354;52.990;6.878;2022-08-03T03:30:02;17.30;99.90
55492;DHT22;41354;52.990;6.878;2022-08-03T03:32:28;17.30;99.90
55492;DHT22;41354;52.990;6.878;2022-08-03T03:35:08;17.30;99.90
55492;DHT22;41354;52.990;6.878;2022-08-03T03:37:34;17.30;99.90
55492;DHT22;41354;52.990;6.878;2022-08-03T03:39:59;17.20;99.90
55492;DHT22;41354;52.990;6.878;2022-08-03T03:42:26;17.20;99.90
55492;DHT22;41354;52.990;6.878;2022-08-03T03:44:51;17.20;99.90
55492;DHT22;41354;52.990;6.878;2022-08-03T03:47:17;17.10;99.90
55492;DHT22;41354;52.990;6.878;2022-08-03T03:49:43;17.10;99.90
55492;DHT22;41354;52.990;6.878;2022-08-03T03:52:09;17.00;99.90
55492;DHT22;41354;52.990;6.878;2022-08-03T03:54:39;17.00;99.90
55492;DHT22;41354;52.990;6.878;2022-08-03T03:57:05;17.10;99.90
55492;DHT22;41354;52.990;6.878;2022-08-03T03:59:31;17.00;99.90
55492;DHT22;41354;52.990;6.878;2022-08-03T04:02:02;17.00;99.90
55492;DHT22;41354;52.990;6.878;2022-08-03T04:04:31;17.00;99.90
55492;DHT22;41354;52.990;6.878;2022-08-03T04:07:17;17.00;99.90
55492;DHT22;41354;52.990;6.878;2022-08-03T04:10:02;17.10;99.90
55492;DHT22;41354;52.990;6.878;2022-08-03T04:12:48;17.10;99.90
55492;DHT22;41354;52.990;6.878;2022-08-03T04:15:17;17.20;99.90
55492;DHT22;41354;52.990;6.878;2022-08-03T04:17:45;17.30;99.90
55492;DHT22;41354;52.990;6.878;2022-08-03T04:20:12;17.30;99.90
55492;DHT22;41354;52.990;6.878;2022-08-03T04:22:38;17.40;99.90
55492;DHT22;41354;52.990;6.878;2022-08-03T04:25:07;17.50;99.90
55492;DHT22;41354;52.990;6.878;2022-08-03T04:27:39;17.40;99.90
55492;DHT22;41354;52.990;6.878;2022-08-03T04:30:06;17.50;99.90
55492;DHT22;41354;52.990;6.878;2022-08-03T04:32:34;17.50;99.90
55492;DHT22;41354;52.990;6.878;2022-08-03T04:35:01;17.50;99.90
55492;DHT22;41354;52.990;6.878;2022-08-03T04:37:42;17.60;99.90
55492;DHT22;41354;52.990;6.878;2022-08-03T04:40:12;17.60;99.90
55492;DHT22;41354;52.990;6.878;2022-08-03T04:42:39;17.60;99.90
55492;DHT22;41354;52.990;6.878;2022-08-03T04:45:07;17.70;99.90
55492;DHT22;41354;52.990;6.878;2022-08-03T04:47:37;17.70;99.90
55492;DHT22;41354;52.990;6.878;2022-08-03T04:50:04;17.80;99.90
55492;DHT22;41354;52.990;6.878;2022-08-03T04:52:30;17.80;99.90
55492;DHT22;41354;52.990;6.878;2022-08-03T04:54:56;17.90;99.90
55492;DHT22;41354;52.990;6.878;2022-08-03T04:57:22;17.90;99.90
55492;DHT22;41354;52.990;6.878;2022-08-03T04:59:48;17.90;99.90
55492;DHT22;41354;52.990;6.878;2022-08-03T05:02:17;18.00;99.90
55492;DHT22;41354;52.990;6.878;2022-08-03T05:04:43;18.00;99.90
55492;DHT22;41354;52.990;6.878;2022-08-03T05:07:11;18.00;99.90
55492;DHT22;41354;52.990;6.878;2022-08-03T05:09:37;18.20;99.90
55492;DHT22;41354;52.990;6.878;2022-08-03T05:12:04;18.20;99.90
55492;DHT22;41354;52.990;6.878;2022-08-03T05:14:29;18.30;99.90
55492;DHT22;41354;52.990;6.878;2022-08-03T05:16:55;18.30;99.90
55492;DHT22;41354;52.990;6.878;2022-08-03T05:19:21;18.40;99.90
55492;DHT22;41354;52.990;6.878;2022-08-03T05:21:46;18.40;99.90
55492;DHT22;41354;52.990;6.878;2022-08-03T05:24:12;18.50;99.90
55492;DHT22;41354;52.990;6.878;2022-08-03T05:26:37;18.60;99.90
55492;DHT22;41354;52.990;6.878;2022-08-03T05:29:03;18.60;99.90
55492;DHT22;41354;52.990;6.878;2022-08-03T05:31:28;18.70;99.90
55492;DHT22;41354;52.990;6.878;2022-08-03T05:33:55;18.80;99.90
55492;DHT22;41354;52.990;6.878;2022-08-03T05:36:21;18.80;99.90
55492;DHT22;41354;52.990;6.878;2022-08-03T05:38:47;18.90;99.90
55492;DHT22;41354;52.990;6.878;2022-08-03T05:41:12;19.10;99.90
55492;DHT22;41354;52.990;6.878;2022-08-03T05:43:38;19.20;99.90
55492;DHT22;41354;52.990;6.878;2022-08-03T05:46:03;19.30;99.90
55492;DHT22;41354;52.990;6.878;2022-08-03T05:48:32;19.40;99.90
55492;DHT22;41354;52.990;6.878;2022-08-03T05:50:57;19.50;99.90
55492;DHT22;41354;52.990;6.878;2022-08-03T05:53:23;19.50;99.90
55492;DHT22;41354;52.990;6.878;2022-08-03T05:55:48;19.60;99.90
55492;DHT22;41354;52.990;6.878;2022-08-03T05:58:14;19.60;99.90
55492;DHT22;41354;52.990;6.878;2022-08-03T06:00:39;19.70;99.90
55492;DHT22;41354;52.990;6.878;2022-08-03T06:03:05;19.70;99.90
55492;DHT22;41354;52.990;6.878;2022-08-03T06:05:31;19.80;99.90
55492;DHT22;41354;52.990;6.878;2022-08-03T06:08:01;19.80;99.90
55492;DHT22;41354;52.990;6.878;2022-08-03T06:10:27;19.80;99.90
55492;DHT22;41354;52.990;6.878;2022-08-03T06:12:52;19.80;99.90
55492;DHT22;41354;52.990;6.878;2022-08-03T06:15:18;19.90;99.90
55492;DHT22;41354;52.990;6.878;2022-08-03T06:17:45;20.00;99.90
55492;DHT22;41354;52.990;6.878;2022-08-03T06:20:11;20.10;99.90
55492;DHT22;41354;52.990;6.878;2022-08-03T06:22:36;20.20;99.90
55492;DHT22;41354;52.990;6.878;2022-08-03T06:25:02;20.30;99.90
55492;DHT22;41354;52.990;6.878;2022-08-03T06:27:28;20.40;99.90
55492;DHT22;41354;52.990;6.878;2022-08-03T06:29:53;20.50;99.90
55492;DHT22;41354;52.990;6.878;2022-08-03T06:32:19;20.60;99.90
55492;DHT22;41354;52.990;6.878;2022-08-03T06:34:47;20.60;99.90
55492;DHT22;41354;52.990;6.878;2022-08-03T06:37:13;20.70;99.90
55492;DHT22;41354;52.990;6.878;2022-08-03T06:39:38;20.80;99.90
55492;DHT22;41354;52.990;6.878;2022-08-03T06:42:04;20.90;99.90
55492;DHT22;41354;52.990;6.878;2022-08-03T06:44:30;20.90;99.90
55492;DHT22;41354;52.990;6.878;2022-08-03T06:46:55;20.90;99.90
55492;DHT22;41354;52.990;6.878;2022-08-03T06:49:21;21.00;99.90
55492;DHT22;41354;52.990;6.878;2022-08-03T06:51:46;21.10;99.90
55492;DHT22;41354;52.990;6.878;2022-08-03T06:54:12;21.10;99.90
55492;DHT22;41354;52.990;6.878;2022-08-03T06:56:38;21.30;99.90
55492;DHT22;41354;52.990;6.878;2022-08-03T06:59:03;21.50;99.90
55492;DHT22;41354;52.990;6.878;2022-08-03T07:01:29;21.70;99.90
55492;DHT22;41354;52.990;6.878;2022-08-03T07:03:54;21.80;99.90
55492;DHT22;41354;52.990;6.878;2022-08-03T07:06:20;21.80;99.90
55492;DHT22;41354;52.990;6.878;2022-08-03T07:08:46;21.80;99.90
55492;DHT22;41354;52.990;6.878;2022-08-03T07:11:12;21.80;99.90
55492;DHT22;41354;52.990;6.878;2022-08-03T07:13:37;21.80;99.90
55492;DHT22;41354;52.990;6.878;2022-08-03T07:16:05;21.80;99.90
55492;DHT22;41354;52.990;6.878;2022-08-03T07:18:31;21.90;99.90
55492;DHT22;41354;52.990;6.878;2022-08-03T07:20:57;21.90;99.90
55492;DHT22;41354;52.990;6.878;2022-08-03T07:23:23;22.00;99.90
55492;DHT22;41354;52.990;6.878;2022-08-03T07:25:49;22.10;99.90
55492;DHT22;41354;52.990;6.878;2022-08-03T07:28:15;22.20;99.90
55492;DHT22;41354;52.990;6.878;2022-08-03T07:30:40;22.40;99.90
55492;DHT22;41354;52.990;6.878;2022-08-03T07:33:06;22.30;99.90
55492;DHT22;41354;52.990;6.878;2022-08-03T07:38:07;22.40;99.90
55492;DHT22;41354;52.990;6.878;2022-08-03T07:40:46;22.60;99.90
55492;DHT22;41354;52.990;6.878;2022-08-03T07:43:29;22.80;99.90
55492;DHT22;41354;52.990;6.878;2022-08-03T07:54:24;23.50;99.90
55492;DHT22;41354;52.990;6.878;2022-08-03T08:00:19;24.00;99.90
55492;DHT22;41354;52.990;6.878;2022-08-03T08:02:50;24.30;99.90
55492;DHT22;41354;52.990;6.878;2022-08-03T08:05:18;24.50;99.90
55492;DHT22;41354;52.990;6.878;2022-08-03T08:07:43;24.60;99.90
55492;DHT22;41354;52.990;6.878;2022-08-03T08:10:09;24.80;99.90
55492;DHT22;41354;52.990;6.878;2022-08-03T08:12:38;24.80;99.90
55492;DHT22;41354;52.990;6.878;2022-08-03T08:15:05;24.90;99.90
55492;DHT22;41354;52.990;6.878;2022-08-03T08:17:44;25.00;99.90
55492;DHT22;41354;52.990;6.878;2022-08-03T08:20:11;25.20;99.90
55492;DHT22;41354;52.990;6.878;2022-08-03T08:22:39;25.40;99.90
55492;DHT22;41354;52.990;6.878;2022-08-03T08:25:05;25.50;99.90
55492;DHT22;41354;52.990;6.878;2022-08-03T08:27:31;25.60;99.90
55492;DHT22;41354;52.990;6.878;2022-08-03T08:29:56;25.70;99.90
55492;DHT22;41354;52.990;6.878;2022-08-03T08:32:22;25.80;99.90
55492;DHT22;41354;52.990;6.878;2022-08-03T08:34:47;25.80;99.90
55492;DHT22;41354;52.990;6.878;2022-08-03T08:37:13;25.90;99.90
55492;DHT22;41354;52.990;6.878;2022-08-03T08:39:39;26.10;99.90
55492;DHT22;41354;52.990;6.878;2022-08-03T08:42:04;26.10;99.90
55492;DHT22;41354;52.990;6.878;2022-08-03T08:44:30;26.20;99.90
55492;DHT22;41354;52.990;6.878;2022-08-03T08:46:56;26.20;99.90
55492;DHT22;41354;52.990;6.878;2022-08-03T08:49:27;26.20;99.90
55492;DHT22;41354;52.990;6.878;2022-08-03T08:51:54;26.50;99.90
55492;DHT22;41354;52.990;6.878;2022-08-03T08:54:21;26.60;99.90
55492;DHT22;41354;52.990;6.878;2022-08-03T08:56:49;26.80;99.90
55492;DHT22;41354;52.990;6.878;2022-08-03T08:59:16;26.90;99.90
55492;DHT22;41354;52.990;6.878;2022-08-03T09:01:42;27.20;99.90
55492;DHT22;41354;52.990;6.878;2022-08-03T09:04:08;27.40;99.90
55492;DHT22;41354;52.990;6.878;2022-08-03T09:06:34;27.60;99.90
55492;DHT22;41354;52.990;6.878;2022-08-03T09:09:00;27.50;99.90
55492;DHT22;41354;52.990;6.878;2022-08-03T09:11:25;27.50;99.90
55492;DHT22;41354;52.990;6.878;2022-08-03T09:13:51;27.40;99.90
55492;DHT22;41354;52.990;6.878;2022-08-03T09:16:21;27.30;99.90
55492;DHT22;41354;52.990;6.878;2022-08-03T09:18:49;27.30;99.90
55492;DHT22;41354;52.990;6.878;2022-08-03T09:21:27;27.40;99.90
55492;DHT22;41354;52.990;6.878;2022-08-03T09:23:58;27.60;99.90
55492;DHT22;41354;52.990;6.878;2022-08-03T09:26:28;27.80;99.90
55492;DHT22;41354;52.990;6.878;2022-08-03T09:29:02;28.00;99.90
55492;DHT22;41354;52.990;6.878;2022-08-03T09:31:32;28.00;99.90
55492;DHT22;41354;52.990;6.878;2022-08-03T09:34:06;28.10;99.90
55492;DHT22;41354;52.990;6.878;2022-08-03T09:39:09;28.50;99.90
55492;DHT22;41354;52.990;6.878;2022-08-03T09:41:40;28.40;99.90
55492;DHT22;41354;52.990;6.878;2022-08-03T09:44:06;28.40;99.90
55492;DHT22;41354;52.990;6.878;2022-08-03T09:46:47;28.70;99.90
55492;DHT22;41354;52.990;6.878;2022-08-03T09:49:12;29.10;99.90
55492;DHT22;41354;52.990;6.878;2022-08-03T09:51:39;29.20;99.90
55492;DHT22;41354;52.990;6.878;2022-08-03T09:54:05;29.40;99.90
55492;DHT22;41354;52.990;6.878;2022-08-03T09:56:42;29.40;99.90
55492;DHT22;41354;52.990;6.878;2022-08-03T09:59:10;29.60;99.90
55492;DHT22;41354;52.990;6.878;2022-08-03T10:01:37;29.60;99.90
55492;DHT22;41354;52.990;6.878;2022-08-03T10:04:11;29.80;99.90
55492;DHT22;41354;52.990;6.878;2022-08-03T10:06:37;29.80;99.20
55492;DHT22;41354;52.990;6.878;2022-08-03T10:09:13;29.60;98.90
55492;DHT22;41354;52.990;6.878;2022-08-03T10:11:40;29.30;99.90
55492;DHT22;41354;52.990;6.878;2022-08-03T10:14:09;29.50;99.90
55492;DHT22;41354;52.990;6.878;2022-08-03T10:16:37;29.90;98.70
55492;DHT22;41354;52.990;6.878;2022-08-03T10:19:04;29.90;97.80
55492;DHT22;41354;52.990;6.878;2022-08-03T10:21:33;29.80;97.90
55492;DHT22;41354;52.990;6.878;2022-08-03T10:24:02;29.80;98.50
55492;DHT22;41354;52.990;6.878;2022-08-03T10:26:33;29.90;97.70
55492;DHT22;41354;52.990;6.878;2022-08-03T10:29:01;29.90;97.60
55492;DHT22;41354;52.990;6.878;2022-08-03T10:31:38;29.90;96.00
55492;DHT22;41354;52.990;6.878;2022-08-03T10:34:10;30.30;95.40
55492;DHT22;41354;52.990;6.878;2022-08-03T10:36:40;30.50;95.50
55492;DHT22;41354;52.990;6.878;2022-08-03T10:39:05;30.70;95.40
55492;DHT22;41354;52.990;6.878;2022-08-03T10:41:38;30.90;94.80
55492;DHT22;41354;52.990;6.878;2022-08-03T10:44:09;31.20;94.00
55492;DHT22;41354;52.990;6.878;2022-08-03T10:46:38;31.50;92.30
55492;DHT22;41354;52.990;6.878;2022-08-03T10:49:04;31.40;92.20
55492;DHT22;41354;52.990;6.878;2022-08-03T10:51:31;31.50;91.20
55492;DHT22;41354;52.990;6.878;2022-08-03T10:54:00;31.70;90.90
55492;DHT22;41354;52.990;6.878;2022-08-03T10:59:17;31.80;87.60
55492;DHT22;41354;52.990;6.878;2022-08-03T11:01:51;31.80;88.30
55492;DHT22;41354;52.990;6.878;2022-08-03T11:04:19;31.90;87.40
55492;DHT22;41354;52.990;6.878;2022-08-03T11:06:45;32.00;85.60
55492;DHT22;41354;52.990;6.878;2022-08-03T11:11:41;32.00;84.20
55492;DHT22;41354;52.990;6.878;2022-08-03T11:14:13;31.80;85.00
55492;DHT22;41354;52.990;6.878;2022-08-03T11:19:17;31.70;81.50
55492;DHT22;41354;52.990;6.878;2022-08-03T11:30:08;31.00;86.50
55492;DHT22;41354;52.990;6.878;2022-08-03T11:37:31;31.70;80.90
55492;DHT22;41354;52.990;6.878;2022-08-03T11:39:57;31.60;80.90
55492;DHT22;41354;52.990;6.878;2022-08-03T11:44:53;31.50;82.00
55492;DHT22;41354;52.990;6.878;2022-08-03T11:47:20;31.60;82.20
55492;DHT22;41354;52.990;6.878;2022-08-03T11:49:46;31.80;80.80
55492;DHT22;41354;52.990;6.878;2022-08-03T11:52:13;32.20;79.00
55492;DHT22;41354;52.990;6.878;2022-08-03T11:54:39;32.50;77.90
55492;DHT22;41354;52.990;6.878;2022-08-03T11:57:05;32.70;76.70
55492;DHT22;41354;52.990;6.878;2022-08-03T11:59:32;32.70;75.30
55492;DHT22;41354;52.990;6.878;2022-08-03T12:02:08;32.70;74.70
55492;DHT22;41354;52.990;6.878;2022-08-03T12:04:53;32.70;73.40
55492;DHT22;41354;52.990;6.878;2022-08-03T12:07:19;32.70;75.00
55492;DHT22;41354;52.990;6.878;2022-08-03T12:10:11;33.10;74.00
55492;DHT22;41354;52.990;6.878;2022-08-03T12:12:38;33.50;71.00
55492;DHT22;41354;52.990;6.878;2022-08-03T12:15:04;33.60;72.00
55492;DHT22;41354;52.990;6.878;2022-08-03T12:19:59;34.20;69.50
55492;DHT22;41354;52.990;6.878;2022-08-03T12:22:36;34.50;67.90
55492;DHT22;41354;52.990;6.878;2022-08-03T12:25:06;34.50;66.40
55492;DHT22;41354;52.990;6.878;2022-08-03T12:27:32;34.40;65.10
55492;DHT22;41354;52.990;6.878;2022-08-03T12:29:59;34.50;64.20
55492;DHT22;41354;52.990;6.878;2022-08-03T12:32:27;34.60;61.90
55492;DHT22;41354;52.990;6.878;2022-08-03T12:34:54;34.50;61.50
55492;DHT22;41354;52.990;6.878;2022-08-03T12:37:22;34.40;62.10
55492;DHT22;41354;52.990;6.878;2022-08-03T12:39:53;34.50;60.70
55492;DHT22;41354;52.990;6.878;2022-08-03T12:42:19;34.50;60.70
55492;DHT22;41354;52.990;6.878;2022-08-03T12:44:45;34.80;60.60
55492;DHT22;41354;52.990;6.878;2022-08-03T12:47:13;35.20;61.90
55492;DHT22;41354;52.990;6.878;2022-08-03T12:49:48;35.40;60.20
55492;DHT22;41354;52.990;6.878;2022-08-03T12:52:15;35.60;56.80
55492;DHT22;41354;52.990;6.878;2022-08-03T12:54:41;35.60;58.20
55492;DHT22;41354;52.990;6.878;2022-08-03T12:57:12;35.60;57.00
55492;DHT22;41354;52.990;6.878;2022-08-03T12:59:40;35.50;55.90
55492;DHT22;41354;52.990;6.878;2022-08-03T13:02:15;35.40;57.30
55492;DHT22;41354;52.990;6.878;2022-08-03T13:04:41;35.50;56.90
55492;DHT22;41354;52.990;6.878;2022-08-03T13:07:09;35.40;56.80
55492;DHT22;41354;52.990;6.878;2022-08-03T13:12:11;35.40;55.70
55492;DHT22;41354;52.990;6.878;2022-08-03T13:14:37;35.20;56.50
55492;DHT22;41354;52.990;6.878;2022-08-03T13:17:04;35.10;56.20
55492;DHT22;41354;52.990;6.878;2022-08-03T13:19:32;35.10;57.90
55492;DHT22;41354;52.990;6.878;2022-08-03T13:21:57;35.30;58.80
55492;DHT22;41354;52.990;6.878;2022-08-03T13:24:23;35.60;57.70
55492;DHT22;41354;52.990;6.878;2022-08-03T13:26:49;36.10;56.60
55492;DHT22;41354;52.990;6.878;2022-08-03T13:29:16;36.30;55.70
55492;DHT22;41354;52.990;6.878;2022-08-03T13:31:42;36.20;56.10
55492;DHT22;41354;52.990;6.878;2022-08-03T13:34:07;36.10;54.80
55492;DHT22;41354;52.990;6.878;2022-08-03T13:36:33;35.90;54.90
55492;DHT22;41354;52.990;6.878;2022-08-03T13:38:59;36.00;54.50
55492;DHT22;41354;52.990;6.878;2022-08-03T13:41:24;36.10;53.80
55492;DHT22;41354;52.990;6.878;2022-08-03T13:43:50;36.00;53.60
55492;DHT22;41354;52.990;6.878;2022-08-03T13:46:16;35.70;53.60
55492;DHT22;41354;52.990;6.878;2022-08-03T13:48:42;35.40;53.60
55492;DHT22;41354;52.990;6.878;2022-08-03T13:51:07;35.20;53.50
55492;DHT22;41354;52.990;6.878;2022-08-03T13:53:33;34.80;53.70
55492;DHT22;41354;52.990;6.878;2022-08-03T13:55:58;34.90;53.00
55492;DHT22;41354;52.990;6.878;2022-08-03T13:58:24;34.40;53.10
55492;DHT22;41354;52.990;6.878;2022-08-03T14:00:49;34.40;54.20
55492;DHT22;41354;52.990;6.878;2022-08-03T14:03:15;34.50;54.40
55492;DHT22;41354;52.990;6.878;2022-08-03T14:05:42;34.50;55.60
55492;DHT22;41354;52.990;6.878;2022-08-03T14:08:08;34.60;55.20
55492;DHT22;41354;52.990;6.878;2022-08-03T14:10:36;34.80;55.20
55492;DHT22;41354;52.990;6.878;2022-08-03T14:13:02;34.80;54.40
55492;DHT22;41354;52.990;6.878;2022-08-03T14:15:28;34.60;53.80
55492;DHT22;41354;52.990;6.878;2022-08-03T14:17:54;34.50;54.50
55492;DHT22;41354;52.990;6.878;2022-08-03T14:20:20;34.40;55.10
55492;DHT22;41354;52.990;6.878;2022-08-03T14:22:46;34.10;54.80
55492;DHT22;41354;52.990;6.878;2022-08-03T14:25:11;33.50;55.20
55492;DHT22;41354;52.990;6.878;2022-08-03T14:27:37;33.40;55.60
55492;DHT22;41354;52.990;6.878;2022-08-03T14:30:03;33.30;56.30
55492;DHT22;41354;52.990;6.878;2022-08-03T14:32:29;33.40;57.20
55492;DHT22;41354;52.990;6.878;2022-08-03T14:34:54;33.80;57.20
55492;DHT22;41354;52.990;6.878;2022-08-03T14:37:20;34.30;56.20
55492;DHT22;41354;52.990;6.878;2022-08-03T14:39:45;34.40;56.50
55492;DHT22;41354;52.990;6.878;2022-08-03T14:42:12;34.40;55.30
55492;DHT22;41354;52.990;6.878;2022-08-03T14:44:37;34.20;55.30
55492;DHT22;41354;52.990;6.878;2022-08-03T14:47:03;34.30;56.00
55492;DHT22;41354;52.990;6.878;2022-08-03T14:49:28;34.70;56.00
55492;DHT22;41354;52.990;6.878;2022-08-03T14:51:54;35.10;55.30
55492;DHT22;41354;52.990;6.878;2022-08-03T14:54:21;35.20;54.80
55492;DHT22;41354;52.990;6.878;2022-08-03T14:56:46;35.00;54.60
55492;DHT22;41354;52.990;6.878;2022-08-03T14:59:12;34.70;54.10
55492;DHT22;41354;52.990;6.878;2022-08-03T15:01:37;34.80;54.30
55492;DHT22;41354;52.990;6.878;2022-08-03T15:04:03;34.90;54.50
55492;DHT22;41354;52.990;6.878;2022-08-03T15:06:29;35.10;54.70
55492;DHT22;41354;52.990;6.878;2022-08-03T15:08:54;35.50;54.30
55492;DHT22;41354;52.990;6.878;2022-08-03T15:11:20;35.70;53.90
55492;DHT22;41354;52.990;6.878;2022-08-03T15:13:45;36.10;53.90
55492;DHT22;41354;52.990;6.878;2022-08-03T15:16:11;36.40;53.10
55492;DHT22;41354;52.990;6.878;2022-08-03T15:18:36;36.00;52.00
55492;DHT22;41354;52.990;6.878;2022-08-03T15:21:02;35.60;52.80
55492;DHT22;41354;52.990;6.878;2022-08-03T15:23:27;35.60;52.70
55492;DHT22;41354;52.990;6.878;2022-08-03T15:25:53;36.00;52.50
55492;DHT22;41354;52.990;6.878;2022-08-03T15:28:18;36.40;52.10
55492;DHT22;41354;52.990;6.878;2022-08-03T15:30:45;36.50;51.70
55492;DHT22;41354;52.990;6.878;2022-08-03T15:33:10;36.50;51.10
55492;DHT22;41354;52.990;6.878;2022-08-03T15:35:36;35.80;51.90
55492;DHT22;41354;52.990;6.878;2022-08-03T15:38:02;35.00;52.90
55492;DHT22;41354;52.990;6.878;2022-08-03T15:40:27;34.50;52.50
55492;DHT22;41354;52.990;6.878;2022-08-03T15:42:53;34.10;52.40
55492;DHT22;41354;52.990;6.878;2022-08-03T15:45:19;33.80;52.80
55492;DHT22;41354;52.990;6.878;2022-08-03T15:47:44;33.60;52.70
55492;DHT22;41354;52.990;6.878;2022-08-03T15:50:10;33.50;53.30
55492;DHT22;41354;52.990;6.878;2022-08-03T15:52:36;33.80;53.80
55492;DHT22;41354;52.990;6.878;2022-08-03T15:55:02;34.40;53.00
55492;DHT22;41354;52.990;6.878;2022-08-03T15:57:28;34.80;53.00
55492;DHT22;41354;52.990;6.878;2022-08-03T15:59:54;35.40;51.40
55492;DHT22;41354;52.990;6.878;2022-08-03T16:02:19;35.60;50.10
55492;DHT22;41354;52.990;6.878;2022-08-03T16:04:45;35.70;50.30
55492;DHT22;41354;52.990;6.878;2022-08-03T16:07:10;35.70;49.10
55492;DHT22;41354;52.990;6.878;2022-08-03T16:09:36;35.40;49.30
55492;DHT22;41354;52.990;6.878;2022-08-03T16:12:02;35.20;50.00
55492;DHT22;41354;52.990;6.878;2022-08-03T16:14:27;35.00;50.30
55492;DHT22;41354;52.990;6.878;2022-08-03T16:16:53;35.20;50.20
55492;DHT22;41354;52.990;6.878;2022-08-03T16:19:18;35.20;49.10
55492;DHT22;41354;52.990;6.878;2022-08-03T16:21:44;35.10;49.90
55492;DHT22;41354;52.990;6.878;2022-08-03T16:24:09;35.30;50.40
55492;DHT22;41354;52.990;6.878;2022-08-03T16:26:35;35.30;49.90
55492;DHT22;41354;52.990;6.878;2022-08-03T16:29:01;35.20;49.10
55492;DHT22;41354;52.990;6.878;2022-08-03T16:31:26;35.40;49.80